Aswan, Egypt

9:11 AM EET on March 27, 2015 (GMT +0200)
Aswan International | | Change Station
CLOSE
Current Station
Airport
Location: Aswan,
Elevation: 636 ft
Nearby Weather Stations

Elev 636 ft 23.96 °N, 32.82 °E | Updated 1 hour ago

Clear
Clear
79 °F
Feels Like 79 °F
N
5
Wind Variable Wind from North

Today
High -- | Low -- °F
--% Chance of Precip.
Yesterday
High -- | Low -- °F
Precip. -- in
5:46 AM 6:02 PM
Waxing Crescent, 50% visible
Pressure 29.89 in
Visibility -9999.0 miles
Clouds
Dew Point 32 °F
Humidity 18%
Rainfall 0.00 in
Snow Depth Not available.
UV Not available.
Pollen Not available.
Air Quality Not available.
Flu Activity Not available.
METAR HESN 270600Z 36004KT CAVOK 26/M00 Q1012 NOSIG

More Conditions Fewer Conditions

Pressure 29.89 in
Visibility -9999.0 miles
Clouds
Dew Point 32 °F
Humidity 18%
Rainfall 0.00 in
Snow Depth Not available.
UV Not available.
Pollen Not available.
Air Quality Not available.
Flu Activity Not available.
METAR HESN 270600Z 36004KT CAVOK 26/M00 Q1012 NOSIG

More Conditions Fewer Conditions

10-Day Weather Forecast

Almanac

Astronomy

Mar. 27, 2015 Rise Set
Actual Time
Civil Twilight
Nautical Twilight
Astronomical Twilight
Moon
Length of Visible Light
Length of Day
Tomorrow will be .
, % of the Moon is Illuminated

Today's Extremes

Country Highs Country Lows

Community

WunderPhotos

Upload Photos

1,808,701 photos uploaded!

WunderBlogs® & News

Nearby

Air Quality

  Air Quality AQ Index Pollutant
Not available.

Snow Depth

Station Depth Elevation

Earthquake Activity

City Distance Mag. Time & Date
Minimum magnitude displayed is 2.5.

Coastal Water Temperatures

Place Temperature

Stations

Nearby Weather Stations

Station Location Temp. Windchill Dew Point Humidity Wind Precip. Elev Updated Type